sensor_id;sensor_type;location;lat;lon;timestamp;pressure;altitude;pressure_sealevel;temperature;humidity
10392;BME280;5242;49.244;6.774;2023-05-27T00:04:00;100292.19;;;13.61;nan
10392;BME280;5242;49.244;6.774;2023-05-27T00:11:52;100297.38;;;13.66;nan
10392;BME280;5242;49.244;6.774;2023-05-27T00:19:44;100289.34;;;13.74;nan
10392;BME280;5242;49.244;6.774;2023-05-27T00:27:36;100280.69;;;13.72;nan
10392;BME280;5242;49.244;6.774;2023-05-27T00:35:28;100278.22;;;13.66;nan
10392;BME280;5242;49.244;6.774;2023-05-27T00:43:20;100279.81;;;13.67;nan
10392;BME280;5242;49.244;6.774;2023-05-27T00:51:12;100283.53;;;13.59;nan
10392;BME280;5242;49.244;6.774;2023-05-27T00:59:04;100280.38;;;13.41;nan
10392;BME280;5242;49.244;6.774;2023-05-27T01:07:10;100280.97;;;13.19;nan
10392;BME280;5242;49.244;6.774;2023-05-27T01:15:06;100271.25;;;13.05;nan
10392;BME280;5242;49.244;6.774;2023-05-27T01:22:59;100263.22;;;12.97;nan
10392;BME280;5242;49.244;6.774;2023-05-27T01:30:54;100263.94;;;12.94;nan
10392;BME280;5242;49.244;6.774;2023-05-27T01:38:50;100247.09;;;12.92;nan
10392;BME280;5242;49.244;6.774;2023-05-27T01:46:44;100248.06;;;12.83;nan
10392;BME280;5242;49.244;6.774;2023-05-27T01:54:36;100255.81;;;12.81;nan
10392;BME280;5242;49.244;6.774;2023-05-27T02:02:28;100254.03;;;12.73;nan
10392;BME280;5242;49.244;6.774;2023-05-27T02:10:21;100248.38;;;12.66;nan
10392;BME280;5242;49.244;6.774;2023-05-27T02:18:13;100242.97;;;12.54;nan
10392;BME280;5242;49.244;6.774;2023-05-27T02:26:05;100246.66;;;12.46;nan
10392;BME280;5242;49.244;6.774;2023-05-27T02:33:56;100244.06;;;12.37;nan
10392;BME280;5242;49.244;6.774;2023-05-27T02:41:48;100227.84;;;12.28;nan
10392;BME280;5242;49.244;6.774;2023-05-27T02:49:40;100229.41;;;12.29;nan
10392;BME280;5242;49.244;6.774;2023-05-27T02:57:32;100229.31;;;12.26;nan
10392;BME280;5242;49.244;6.774;2023-05-27T03:05:24;100235.97;;;12.12;nan
10392;BME280;5242;49.244;6.774;2023-05-27T03:13:16;100228.84;;;11.95;nan
10392;BME280;5242;49.244;6.774;2023-05-27T03:21:08;100228.53;;;11.72;nan
10392;BME280;5242;49.244;6.774;2023-05-27T03:29:00;100226.41;;;11.53;nan
10392;BME280;5242;49.244;6.774;2023-05-27T03:36:52;100225.63;;;11.28;nan
10392;BME280;5242;49.244;6.774;2023-05-27T03:44:44;100222.56;;;11.05;nan
10392;BME280;5242;49.244;6.774;2023-05-27T03:52:36;100223.69;;;10.92;nan
10392;BME280;5242;49.244;6.774;2023-05-27T04:00:28;100212.19;;;10.74;nan
10392;BME280;5242;49.244;6.774;2023-05-27T04:08:22;100220.09;;;10.67;nan
10392;BME280;5242;49.244;6.774;2023-05-27T04:16:17;100219.41;;;10.58;nan
10392;BME280;5242;49.244;6.774;2023-05-27T04:24:09;100216.47;;;10.63;nan
10392;BME280;5242;49.244;6.774;2023-05-27T04:32:01;100226.81;;;10.70;nan
10392;BME280;5242;49.244;6.774;2023-05-27T04:39:54;100226.63;;;10.87;nan
10392;BME280;5242;49.244;6.774;2023-05-27T04:47:48;100218.03;;;11.09;nan
10392;BME280;5242;49.244;6.774;2023-05-27T04:55:41;100219.63;;;11.35;nan
10392;BME280;5242;49.244;6.774;2023-05-27T05:03:34;100228.22;;;11.62;nan
10392;BME280;5242;49.244;6.774;2023-05-27T05:11:31;100223.94;;;12.01;nan
10392;BME280;5242;49.244;6.774;2023-05-27T05:19:23;100224.81;;;12.61;nan
10392;BME280;5242;49.244;6.774;2023-05-27T05:27:15;100218.41;;;13.17;nan
10392;BME280;5242;49.244;6.774;2023-05-27T05:35:07;100222.53;;;13.59;nan
10392;BME280;5242;49.244;6.774;2023-05-27T05:42:59;100223.81;;;14.00;nan
10392;BME280;5242;49.244;6.774;2023-05-27T05:50:51;100223.38;;;14.37;nan
10392;BME280;5242;49.244;6.774;2023-05-27T05:58:44;100221.31;;;14.73;nan
10392;BME280;5242;49.244;6.774;2023-05-27T06:06:36;100207.63;;;14.96;nan
10392;BME280;5242;49.244;6.774;2023-05-27T06:14:27;100216.78;;;15.30;nan
10392;BME280;5242;49.244;6.774;2023-05-27T06:22:19;100210.56;;;15.60;nan
10392;BME280;5242;49.244;6.774;2023-05-27T06:30:12;100214.88;;;15.88;nan
10392;BME280;5242;49.244;6.774;2023-05-27T06:38:04;100217.31;;;16.26;nan
10392;BME280;5242;49.244;6.774;2023-05-27T06:45:56;100212.44;;;16.50;nan
10392;BME280;5242;49.244;6.774;2023-05-27T06:53:55;100210.00;;;16.79;nan
10392;BME280;5242;49.244;6.774;2023-05-27T07:01:47;100209.16;;;17.19;nan
10392;BME280;5242;49.244;6.774;2023-05-27T07:09:40;100198.22;;;17.30;nan
10392;BME280;5242;49.244;6.774;2023-05-27T07:17:32;100194.53;;;17.70;nan
10392;BME280;5242;49.244;6.774;2023-05-27T07:25:24;100186.84;;;18.01;nan
10392;BME280;5242;49.244;6.774;2023-05-27T07:33:17;100194.00;;;18.23;nan
10392;BME280;5242;49.244;6.774;2023-05-27T07:41:10;100176.78;;;18.80;nan
10392;BME280;5242;49.244;6.774;2023-05-27T07:49:02;100166.91;;;19.11;nan
10392;BME280;5242;49.244;6.774;2023-05-27T07:56:53;100166.78;;;19.76;nan
10392;BME280;5242;49.244;6.774;2023-05-27T08:04:45;100147.03;;;20.48;nan
10392;BME280;5242;49.244;6.774;2023-05-27T08:12:38;100153.00;;;20.46;nan
10392;BME280;5242;49.244;6.774;2023-05-27T08:20:30;100143.81;;;21.50;nan
10392;BME280;5242;49.244;6.774;2023-05-27T08:28:22;100133.03;;;21.90;nan
10392;BME280;5242;49.244;6.774;2023-05-27T08:36:14;100137.59;;;22.34;nan
10392;BME280;5242;49.244;6.774;2023-05-27T08:44:06;100119.88;;;23.22;nan
10392;BME280;5242;49.244;6.774;2023-05-27T08:52:01;100113.19;;;25.44;nan
10392;BME280;5242;49.244;6.774;2023-05-27T08:59:54;100111.19;;;25.86;nan
10392;BME280;5242;49.244;6.774;2023-05-27T09:07:46;100092.34;;;26.03;nan
10392;BME280;5242;49.244;6.774;2023-05-27T09:15:40;100099.50;;;27.47;nan
10392;BME280;5242;49.244;6.774;2023-05-27T09:23:37;100090.13;;;28.34;nan
10392;BME280;5242;49.244;6.774;2023-05-27T09:31:30;100084.09;;;27.95;nan
10392;BME280;5242;49.244;6.774;2023-05-27T09:39:22;100077.22;;;28.37;nan
10392;BME280;5242;49.244;6.774;2023-05-27T09:47:16;100063.78;;;28.91;nan
10392;BME280;5242;49.244;6.774;2023-05-27T09:55:09;100058.31;;;28.96;nan
10392;BME280;5242;49.244;6.774;2023-05-27T10:03:03;100059.72;;;28.64;nan
10392;BME280;5242;49.244;6.774;2023-05-27T10:10:56;100054.16;;;29.10;nan
10392;BME280;5242;49.244;6.774;2023-05-27T10:18:53;100027.94;;;29.41;nan
10392;BME280;5242;49.244;6.774;2023-05-27T10:26:46;100040.69;;;28.40;nan
10392;BME280;5242;49.244;6.774;2023-05-27T10:34:42;100036.06;;;29.02;nan
10392;BME280;5242;49.244;6.774;2023-05-27T10:42:36;100018.28;;;29.33;nan
10392;BME280;5242;49.244;6.774;2023-05-27T10:50:31;100020.47;;;29.19;nan
10392;BME280;5242;49.244;6.774;2023-05-27T10:58:26;100007.34;;;29.44;nan
10392;BME280;5242;49.244;6.774;2023-05-27T11:06:19;100000.94;;;29.86;nan
10392;BME280;5242;49.244;6.774;2023-05-27T11:14:11;99995.44;;;28.79;nan
10392;BME280;5242;49.244;6.774;2023-05-27T11:22:03;99989.34;;;27.44;nan
10392;BME280;5242;49.244;6.774;2023-05-27T11:29:55;99978.41;;;27.37;nan
10392;BME280;5242;49.244;6.774;2023-05-27T11:37:50;99980.03;;;28.56;nan
10392;BME280;5242;49.244;6.774;2023-05-27T11:45:42;99955.31;;;29.43;nan
10392;BME280;5242;49.244;6.774;2023-05-27T11:53:44;99950.25;;;29.56;nan
10392;BME280;5242;49.244;6.774;2023-05-27T12:01:36;99949.19;;;28.28;nan
10392;BME280;5242;49.244;6.774;2023-05-27T12:09:28;99936.44;;;28.55;nan
10392;BME280;5242;49.244;6.774;2023-05-27T12:17:21;99921.38;;;29.65;nan
10392;BME280;5242;49.244;6.774;2023-05-27T12:25:12;99923.00;;;29.81;nan
10392;BME280;5242;49.244;6.774;2023-05-27T12:33:05;99905.94;;;29.69;nan
10392;BME280;5242;49.244;6.774;2023-05-27T12:40:58;99904.81;;;29.43;nan
10392;BME280;5242;49.244;6.774;2023-05-27T12:48:50;99890.38;;;30.31;nan
10392;BME280;5242;49.244;6.774;2023-05-27T12:56:42;99876.44;;;31.26;nan
10392;BME280;5242;49.244;6.774;2023-05-27T13:04:34;99856.13;;;31.52;nan
10392;BME280;5242;49.244;6.774;2023-05-27T13:12:27;99868.41;;;30.30;nan
10392;BME280;5242;49.244;6.774;2023-05-27T13:20:23;99857.25;;;29.15;nan
10392;BME280;5242;49.244;6.774;2023-05-27T13:28:15;99852.63;;;27.46;nan
10392;BME280;5242;49.244;6.774;2023-05-27T13:36:07;99853.94;;;26.92;nan
10392;BME280;5242;49.244;6.774;2023-05-27T13:43:59;99847.19;;;26.80;nan
10392;BME280;5242;49.244;6.774;2023-05-27T13:51:51;99835.25;;;26.80;nan
10392;BME280;5242;49.244;6.774;2023-05-27T13:59:43;99825.09;;;26.73;nan
10392;BME280;5242;49.244;6.774;2023-05-27T14:07:44;99811.75;;;26.46;nan
10392;BME280;5242;49.244;6.774;2023-05-27T14:15:37;99817.25;;;25.93;nan
10392;BME280;5242;49.244;6.774;2023-05-27T14:23:29;99807.50;;;25.97;nan
10392;BME280;5242;49.244;6.774;2023-05-27T14:31:21;99789.66;;;26.39;nan
10392;BME280;5242;49.244;6.774;2023-05-27T14:39:13;99779.78;;;26.47;nan
10392;BME280;5242;49.244;6.774;2023-05-27T14:47:05;99786.34;;;26.53;nan
10392;BME280;5242;49.244;6.774;2023-05-27T14:54:57;99792.91;;;26.15;nan
10392;BME280;5242;49.244;6.774;2023-05-27T15:02:50;99783.91;;;26.11;nan
10392;BME280;5242;49.244;6.774;2023-05-27T15:10:43;99785.66;;;25.96;nan
10392;BME280;5242;49.244;6.774;2023-05-27T15:18:35;99795.16;;;25.86;nan
10392;BME280;5242;49.244;6.774;2023-05-27T15:26:27;99782.22;;;25.79;nan
10392;BME280;5242;49.244;6.774;2023-05-27T15:34:19;99781.38;;;25.56;nan
10392;BME280;5242;49.244;6.774;2023-05-27T15:42:10;99777.31;;;25.35;nan
10392;BME280;5242;49.244;6.774;2023-05-27T15:50:03;99758.59;;;25.23;nan
10392;BME280;5242;49.244;6.774;2023-05-27T15:57:55;99760.94;;;25.12;nan
10392;BME280;5242;49.244;6.774;2023-05-27T16:05:47;99753.69;;;25.14;nan
10392;BME280;5242;49.244;6.774;2023-05-27T16:13:39;99750.00;;;25.05;nan
10392;BME280;5242;49.244;6.774;2023-05-27T16:21:31;99741.47;;;24.86;nan
10392;BME280;5242;49.244;6.774;2023-05-27T16:29:23;99730.31;;;24.86;nan
10392;BME280;5242;49.244;6.774;2023-05-27T16:37:15;99731.09;;;24.61;nan
10392;BME280;5242;49.244;6.774;2023-05-27T16:45:07;99728.09;;;24.56;nan
10392;BME280;5242;49.244;6.774;2023-05-27T16:52:59;99724.50;;;24.42;nan
10392;BME280;5242;49.244;6.774;2023-05-27T17:00:58;99717.78;;;24.27;nan
10392;BME280;5242;49.244;6.774;2023-05-27T17:08:51;99716.25;;;23.97;nan
10392;BME280;5242;49.244;6.774;2023-05-27T17:16:43;99724.75;;;23.77;nan
10392;BME280;5242;49.244;6.774;2023-05-27T17:24:34;99728.41;;;23.74;nan
10392;BME280;5242;49.244;6.774;2023-05-27T17:32:29;99726.88;;;23.56;nan
10392;BME280;5242;49.244;6.774;2023-05-27T17:40:21;99722.19;;;23.53;nan
10392;BME280;5242;49.244;6.774;2023-05-27T17:48:13;99734.38;;;23.43;nan
10392;BME280;5242;49.244;6.774;2023-05-27T17:56:06;99734.78;;;23.41;nan
10392;BME280;5242;49.244;6.774;2023-05-27T18:03:58;99727.34;;;23.22;nan
10392;BME280;5242;49.244;6.774;2023-05-27T18:11:49;99733.41;;;23.00;nan
10392;BME280;5242;49.244;6.774;2023-05-27T18:19:41;99727.13;;;22.80;nan
10392;BME280;5242;49.244;6.774;2023-05-27T18:27:33;99740.38;;;22.56;nan
10392;BME280;5242;49.244;6.774;2023-05-27T18:35:26;99738.06;;;22.34;nan
10392;BME280;5242;49.244;6.774;2023-05-27T18:43:23;99741.59;;;22.15;nan
10392;BME280;5242;49.244;6.774;2023-05-27T18:51:14;99747.22;;;21.91;nan
10392;BME280;5242;49.244;6.774;2023-05-27T18:59:06;99761.25;;;21.61;nan
10392;BME280;5242;49.244;6.774;2023-05-27T19:06:58;99765.31;;;21.29;nan
10392;BME280;5242;49.244;6.774;2023-05-27T19:14:50;99757.47;;;21.00;nan
10392;BME280;5242;49.244;6.774;2023-05-27T19:22:44;99768.22;;;20.68;nan
10392;BME280;5242;49.244;6.774;2023-05-27T19:30:36;99764.25;;;20.38;nan
10392;BME280;5242;49.244;6.774;2023-05-27T19:38:28;99770.22;;;19.98;nan
10392;BME280;5242;49.244;6.774;2023-05-27T19:46:20;99767.88;;;19.52;nan
10392;BME280;5242;49.244;6.774;2023-05-27T19:54:12;99776.09;;;19.14;nan
10392;BME280;5242;49.244;6.774;2023-05-27T20:02:04;99785.78;;;18.77;nan
10392;BME280;5242;49.244;6.774;2023-05-27T20:09:56;99787.50;;;18.42;nan
10392;BME280;5242;49.244;6.774;2023-05-27T20:17:48;99780.91;;;18.15;nan
10392;BME280;5242;49.244;6.774;2023-05-27T20:25:40;99779.41;;;17.89;nan
10392;BME280;5242;49.244;6.774;2023-05-27T20:33:33;99789.25;;;17.65;nan
10392;BME280;5242;49.244;6.774;2023-05-27T20:41:26;99786.91;;;17.34;nan
10392;BME280;5242;49.244;6.774;2023-05-27T20:49:18;99793.94;;;16.96;nan
10392;BME280;5242;49.244;6.774;2023-05-27T20:57:10;99794.56;;;16.50;nan
10392;BME280;5242;49.244;6.774;2023-05-27T21:05:02;99791.25;;;16.12;nan
10392;BME280;5242;49.244;6.774;2023-05-27T21:12:54;99782.50;;;15.89;nan
10392;BME280;5242;49.244;6.774;2023-05-27T21:20:46;99780.75;;;15.66;nan
10392;BME280;5242;49.244;6.774;2023-05-27T21:28:38;99777.03;;;15.44;nan
10392;BME280;5242;49.244;6.774;2023-05-27T21:36:31;99778.84;;;15.26;nan
10392;BME280;5242;49.244;6.774;2023-05-27T21:44:24;99781.03;;;15.06;nan
10392;BME280;5242;49.244;6.774;2023-05-27T21:52:16;99779.97;;;14.80;nan
10392;BME280;5242;49.244;6.774;2023-05-27T22:00:10;99762.78;;;14.49;nan
10392;BME280;5242;49.244;6.774;2023-05-27T22:08:07;99764.41;;;14.20;nan
10392;BME280;5242;49.244;6.774;2023-05-27T22:15:59;99753.44;;;13.90;nan
10392;BME280;5242;49.244;6.774;2023-05-27T22:23:53;99757.44;;;13.69;nan
10392;BME280;5242;49.244;6.774;2023-05-27T22:31:45;99743.09;;;13.49;nan
10392;BME280;5242;49.244;6.774;2023-05-27T22:39:36;99742.91;;;13.39;nan
10392;BME280;5242;49.244;6.774;2023-05-27T22:47:28;99745.19;;;13.33;nan
10392;BME280;5242;49.244;6.774;2023-05-27T22:55:20;99743.34;;;13.18;nan
10392;BME280;5242;49.244;6.774;2023-05-27T23:03:12;99736.63;;;12.89;nan
10392;BME280;5242;49.244;6.774;2023-05-27T23:11:04;99737.50;;;12.73;nan
10392;BME280;5242;49.244;6.774;2023-05-27T23:18:56;99732.22;;;12.61;nan
10392;BME280;5242;49.244;6.774;2023-05-27T23:26:48;99724.16;;;12.49;nan
10392;BME280;5242;49.244;6.774;2023-05-27T23:34:40;99712.03;;;12.27;nan
10392;BME280;5242;49.244;6.774;2023-05-27T23:42:32;99724.84;;;12.23;nan
10392;BME280;5242;49.244;6.774;2023-05-27T23:50:24;99718.88;;;12.17;nan
10392;BME280;5242;49.244;6.774;2023-05-27T23:58:16;99708.16;;;11.89;nan
